Terminal Aerodrome Forecast
Issued by NWS Greer, SC

Home | Current Version | Previous Version | Text Only | Print | Product List | Glossary On
Versions: 1 2 3 4 5 6 7 8 9 10 11 12 13 14 15 16 17 18 19 20 21 22 23 24 25 26 27
000
FTUS42 KGSP 220158 AAB
TAFGSP
TAF AMD
KGSP 220158Z 2202/2224 03006KT 6SM BR VCSH OVC006
     FM220800 04004KT 2SM -SHRA BR OVC003 PROB30 2211/2214 1SM TSRA
      BR OVC005CB
     FM221400 08007KT 3/4SM -SHRA BR OVC003
     FM221700 12006KT 1SM -SHRA BR OVC004
     FM222000 17008KT 4SM SHRA OVC007
      TEMPO 2220/2224 2SM TSRA OVC004CB=

USA.gov is the U.S. government's official web portal to all federal, state and local government web resources and services.